Time;durP1;ratioP1;P1;durP2;ratioP2;P2;SDS_P1;SDS_P2;PMS_P1;PMS_P2;Temp;Humidity;BMP_temperature;BMP_pressure;BME280_temperature;BME280_humidity;BME280_pressure;Samples;Min_cycle;Max_cycle;Signal;HPM_P1;HPM_P2
2023/03/04 00:00:58;;;;;;;37.20;21.07;;;;;;;;;;5050626;28;20280;-70
2023/03/04 00:03:24;;;;;;;36.17;19.70;;;;;;;;;;5051703;28;20734;-71
2023/03/04 00:05:49;;;;;;;34.70;19.13;;;;;;;;;;5049436;28;20852;-71
2023/03/04 00:08:14;;;;;;;37.93;20.00;;;;;;;;;;5051170;28;20574;-70
2023/03/04 00:10:39;;;;;;;36.73;17.73;;;;;;;;;;5051816;28;20874;-71
2023/03/04 00:13:04;;;;;;;30.87;18.80;;;;;;;;;;5051302;28;20267;-71
2023/03/04 00:15:30;;;;;;;35.50;19.33;;;;;;;;;;5051139;28;20093;-69
2023/03/04 00:17:55;;;;;;;34.83;19.42;;;;;;;;;;5049519;28;20537;-67
2023/03/04 00:20:20;;;;;;;35.77;18.43;;;;;;;;;;5051543;28;20039;-70
2023/03/04 00:22:45;;;;;;;41.47;20.43;;;;;;;;;;5050497;28;20263;-68
2023/03/04 00:25:10;;;;;;;33.40;18.57;;;;;;;;;;5051600;28;20674;-69
2023/03/04 00:27:36;;;;;;;30.53;18.13;;;;;;;;;;5051473;28;20275;-69
2023/03/04 00:30:01;;;;;;;35.00;18.73;;;;;;;;;;5050019;28;20897;-63
2023/03/04 00:32:26;;;;;;;34.43;17.87;;;;;;;;;;5050851;28;20805;-72
2023/03/04 00:34:51;;;;;;;37.07;19.33;;;;;;;;;;5045950;28;20299;-72
2023/03/04 00:37:17;;;;;;;38.13;21.23;;;;;;;;;;5051182;28;20275;-71
2023/03/04 00:39:42;;;;;;;38.80;20.00;;;;;;;;;;5057648;28;20036;-71
2023/03/04 00:42:07;;;;;;;37.75;19.63;;;;;;;;;;5052159;28;20029;-72
2023/03/04 00:44:32;;;;;;;32.17;17.38;;;;;;;;;;5050993;28;20024;-73
2023/03/04 00:46:58;;;;;;;36.03;17.90;;;;;;;;;;5050493;28;20033;-72
2023/03/04 00:49:23;;;;;;;38.78;21.27;;;;;;;;;;5047007;28;20329;-71
2023/03/04 00:51:48;;;;;;;35.70;19.33;;;;;;;;;;5049372;28;20147;-67
2023/03/04 00:54:13;;;;;;;43.13;20.20;;;;;;;;;;5050507;28;20116;-66
2023/03/04 00:56:39;;;;;;;35.50;19.17;;;;;;;;;;5050599;28;20280;-65
2023/03/04 00:59:04;;;;;;;34.40;18.83;;;;;;;;;;5048663;28;20117;-66
2023/03/04 01:01:29;;;;;;;39.85;21.08;;;;;;;;;;5046355;28;20358;-61
2023/03/04 01:03:54;;;;;;;35.55;19.15;;;;;;;;;;5047321;28;20048;-63
2023/03/04 01:06:20;;;;;;;34.15;17.08;;;;;;;;;;5049905;28;20452;-69
2023/03/04 01:08:45;;;;;;;31.70;19.75;;;;;;;;;;5041544;28;20496;-69
2023/03/04 01:11:10;;;;;;;32.47;18.23;;;;;;;;;;5047206;28;20041;-64
2023/03/04 01:13:35;;;;;;;31.20;16.87;;;;;;;;;;5047974;28;20298;-63
2023/03/04 01:16:02;;;;;;;37.03;20.13;;;;;;;;;;5049855;28;20298;-61
2023/03/04 01:18:27;;;;;;;33.50;19.73;;;;;;;;;;5047181;28;20039;-62
2023/03/04 01:20:52;;;;;;;35.80;19.87;;;;;;;;;;5042961;28;20033;-65
2023/03/04 01:23:18;;;;;;;34.27;17.90;;;;;;;;;;5047671;28;20291;-64
2023/03/04 01:25:43;;;;;;;34.47;17.70;;;;;;;;;;5050108;28;20271;-63
2023/03/04 01:28:08;;;;;;;36.07;17.60;;;;;;;;;;5049982;28;20071;-70
2023/03/04 01:30:33;;;;;;;34.13;18.57;;;;;;;;;;5046939;28;20025;-70
2023/03/04 01:32:58;;;;;;;36.33;17.83;;;;;;;;;;5049235;28;20294;-69
2023/03/04 01:35:23;;;;;;;39.45;19.08;;;;;;;;;;5049609;28;20028;-70
2023/03/04 01:37:49;;;;;;;33.90;18.27;;;;;;;;;;5047996;28;20464;-69
2023/03/04 01:40:14;;;;;;;31.15;17.40;;;;;;;;;;5043759;28;20279;-69
2023/03/04 01:42:40;;;;;;;38.15;21.05;;;;;;;;;;5052114;28;20418;-69
2023/03/04 01:45:06;;;;;;;31.98;18.25;;;;;;;;;;5055871;28;20032;-64
2023/03/04 01:47:32;;;;;;;34.20;19.17;;;;;;;;;;5050102;28;20055;-68
2023/03/04 01:49:57;;;;;;;38.85;19.20;;;;;;;;;;5049510;28;20047;-68
2023/03/04 01:52:23;;;;;;;33.85;18.25;;;;;;;;;;5030303;28;20052;-70
2023/03/04 01:54:48;;;;;;;34.53;17.80;;;;;;;;;;5049649;28;20174;-69
2023/03/04 01:57:21;;;;;;;34.90;19.27;;;;;;;;;;5049600;28;20379;-68
2023/03/04 01:59:46;;;;;;;34.95;19.23;;;;;;;;;;5042755;28;20032;-67
2023/03/04 02:02:12;;;;;;;35.33;19.00;;;;;;;;;;5049651;28;20029;-64
2023/03/04 02:04:38;;;;;;;34.92;20.33;;;;;;;;;;5049108;28;20028;-70
2023/03/04 02:07:03;;;;;;;32.03;18.00;;;;;;;;;;5049500;28;20087;-70
2023/03/04 02:09:29;;;;;;;34.10;19.83;;;;;;;;;;5047573;28;20115;-69
2023/03/04 02:11:55;;;;;;;34.63;19.05;;;;;;;;;;5047162;28;20068;-70
2023/03/04 02:14:20;;;;;;;33.08;18.38;;;;;;;;;;5043004;28;20029;-70
2023/03/04 02:16:46;;;;;;;33.83;18.13;;;;;;;;;;5056238;28;20538;-70
2023/03/04 02:19:14;;;;;;;32.42;18.23;;;;;;;;;;5048924;28;20051;-69
2023/03/04 02:21:40;;;;;;;34.30;19.35;;;;;;;;;;5049351;28;20487;-71
2023/03/04 02:24:05;;;;;;;35.15;19.75;;;;;;;;;;5048836;28;20100;-68
2023/03/04 02:26:31;;;;;;;34.30;19.00;;;;;;;;;;5047869;28;20095;-67
2023/03/04 02:28:57;;;;;;;35.63;17.92;;;;;;;;;;5048863;28;20017;-69
2023/03/04 02:31:34;;;;;;;33.55;17.52;;;;;;;;;;5049267;28;20128;-69
2023/03/04 02:34:02;;;;;;;35.08;17.88;;;;;;;;;;5049046;28;20104;-67
2023/03/04 02:36:27;;;;;;;33.88;18.38;;;;;;;;;;5030699;28;20315;-69
2023/03/04 02:38:53;;;;;;;33.83;17.25;;;;;;;;;;5048558;28;20025;-69
2023/03/04 02:41:24;;;;;;;31.33;16.45;;;;;;;;;;5048823;28;20112;-72
2023/03/04 02:43:53;;;;;;;31.77;17.25;;;;;;;;;;5049058;28;20029;-71
2023/03/04 02:46:18;;;;;;;31.30;17.20;;;;;;;;;;5037838;28;20028;-72
2023/03/04 02:48:44;;;;;;;32.17;16.38;;;;;;;;;;5054000;28;20040;-71
2023/03/04 02:51:09;;;;;;;33.47;17.97;;;;;;;;;;5049013;28;20024;-72
2023/03/04 02:53:34;;;;;;;36.17;17.50;;;;;;;;;;5048369;28;20322;-71
2023/03/04 02:55:59;;;;;;;37.77;19.93;;;;;;;;;;5030363;28;20343;-72
2023/03/04 02:58:25;;;;;;;35.08;18.27;;;;;;;;;;5046809;28;20758;-70
2023/03/04 03:00:50;;;;;;;33.20;17.60;;;;;;;;;;5044427;28;20045;-62
2023/03/04 03:03:16;;;;;;;32.63;18.10;;;;;;;;;;5047192;28;20063;-65
2023/03/04 03:05:41;;;;;;;35.42;18.70;;;;;;;;;;5047625;28;20385;-63
2023/03/04 03:08:06;;;;;;;29.83;16.15;;;;;;;;;;5048586;28;20031;-65
2023/03/04 03:10:32;;;;;;;29.35;16.65;;;;;;;;;;5030231;28;20053;-64
2023/03/04 03:12:57;;;;;;;27.65;15.63;;;;;;;;;;5048701;28;20124;-64
2023/03/04 03:15:22;;;;;;;31.13;16.90;;;;;;;;;;5048596;28;20082;-69
2023/03/04 03:17:48;;;;;;;32.30;16.63;;;;;;;;;;5043004;28;20331;-69
2023/03/04 03:20:13;;;;;;;29.02;16.23;;;;;;;;;;5051303;28;20025;-72
2023/03/04 03:22:39;;;;;;;35.10;16.88;;;;;;;;;;5048633;28;20045;-70
2023/03/04 03:25:05;;;;;;;33.80;18.70;;;;;;;;;;5047230;28;20460;-72
2023/03/04 03:27:30;;;;;;;33.20;16.38;;;;;;;;;;5044871;28;20497;-70
2023/03/04 03:29:55;;;;;;;33.00;17.23;;;;;;;;;;5047622;28;20116;-72
2023/03/04 03:32:21;;;;;;;31.17;16.33;;;;;;;;;;5048367;28;20036;-71
2023/03/04 03:34:46;;;;;;;31.48;16.42;;;;;;;;;;5042892;28;20309;-72
2023/03/04 03:37:12;;;;;;;29.37;16.40;;;;;;;;;;5043194;28;20032;-67
2023/03/04 03:39:37;;;;;;;32.22;17.48;;;;;;;;;;5045586;28;20272;-64
2023/03/04 03:42:02;;;;;;;28.67;16.83;;;;;;;;;;5046868;28;20044;-66
2023/03/04 03:44:27;;;;;;;30.02;17.42;;;;;;;;;;5048344;28;20049;-64
2023/03/04 03:46:53;;;;;;;29.42;14.82;;;;;;;;;;5042484;28;20454;-65
2023/03/04 03:49:18;;;;;;;31.30;16.53;;;;;;;;;;5027024;28;20376;-65
2023/03/04 03:51:43;;;;;;;27.70;15.73;;;;;;;;;;5053522;28;20410;-63
2023/03/04 03:54:08;;;;;;;30.02;16.83;;;;;;;;;;5048436;28;20044;-71
2023/03/04 03:56:34;;;;;;;32.10;17.17;;;;;;;;;;5030338;28;20020;-69
2023/03/04 03:58:59;;;;;;;31.37;16.20;;;;;;;;;;5048316;28;20029;-68
2023/03/04 04:01:24;;;;;;;30.77;16.37;;;;;;;;;;5042377;28;20268;-69
2023/03/04 04:03:49;;;;;;;31.65;16.15;;;;;;;;;;5048374;28;20321;-68
2023/03/04 04:06:15;;;;;;;35.97;17.47;;;;;;;;;;5046766;28;20025;-67
2023/03/04 04:08:40;;;;;;;31.58;17.05;;;;;;;;;;5051820;28;20052;-68
2023/03/04 04:11:05;;;;;;;33.03;16.45;;;;;;;;;;5052084;28;20091;-70
2023/03/04 04:13:30;;;;;;;29.95;15.85;;;;;;;;;;5051724;28;20029;-67
2023/03/04 04:15:55;;;;;;;29.57;15.90;;;;;;;;;;5051332;28;20631;-67
2023/03/04 04:18:22;;;;;;;31.80;16.97;;;;;;;;;;5050456;28;20267;-68
2023/03/04 04:20:47;;;;;;;31.42;16.60;;;;;;;;;;5051591;28;20283;-68
2023/03/04 04:23:13;;;;;;;31.97;16.00;;;;;;;;;;5037602;28;20139;-68
2023/03/04 04:25:38;;;;;;;30.20;14.87;;;;;;;;;;5054077;28;20424;-68
2023/03/04 04:28:03;;;;;;;28.30;15.37;;;;;;;;;;5050888;28;20780;-68
2023/03/04 04:30:28;;;;;;;27.20;16.23;;;;;;;;;;5050662;28;20936;-71
2023/03/04 04:32:54;;;;;;;28.63;16.08;;;;;;;;;;5051189;28;20448;-68
2023/03/04 04:35:19;;;;;;;31.43;15.83;;;;;;;;;;5051258;28;20078;-70
2023/03/04 04:37:44;;;;;;;28.10;15.52;;;;;;;;;;5047226;28;20275;-70
2023/03/04 04:40:10;;;;;;;25.23;12.98;;;;;;;;;;5046043;28;20468;-68
2023/03/04 04:42:35;;;;;;;26.70;14.93;;;;;;;;;;5049812;28;20352;-70
2023/03/04 04:45:00;;;;;;;25.63;14.37;;;;;;;;;;5051592;28;20415;-69
2023/03/04 04:47:25;;;;;;;30.60;14.02;;;;;;;;;;5042272;28;20268;-63
2023/03/04 04:49:51;;;;;;;29.98;16.05;;;;;;;;;;5050838;28;20074;-67
2023/03/04 04:52:16;;;;;;;27.88;16.55;;;;;;;;;;5050984;28;20039;-68
2023/03/04 04:54:41;;;;;;;23.33;14.10;;;;;;;;;;5054274;28;20044;-68
2023/03/04 04:57:07;;;;;;;30.05;14.80;;;;;;;;;;5054373;28;20335;-69
2023/03/04 04:59:33;;;;;;;29.20;14.90;;;;;;;;;;5050666;28;20053;-70
2023/03/04 05:01:58;;;;;;;30.27;15.57;;;;;;;;;;5049706;28;20378;-70
2023/03/04 05:04:23;;;;;;;32.33;16.80;;;;;;;;;;5041342;28;20746;-69
2023/03/04 05:06:48;;;;;;;29.83;15.80;;;;;;;;;;5050760;28;20687;-68
2023/03/04 05:09:13;;;;;;;25.40;15.10;;;;;;;;;;5050290;28;20039;-67
2023/03/04 05:11:39;;;;;;;31.97;16.10;;;;;;;;;;5047403;28;20294;-67
2023/03/04 05:14:04;;;;;;;24.17;13.33;;;;;;;;;;5048906;28;20354;-68
2023/03/04 05:16:29;;;;;;;29.20;16.42;;;;;;;;;;5050115;28;20268;-67
2023/03/04 05:18:54;;;;;;;32.80;16.95;;;;;;;;;;5045461;28;20059;-66
2023/03/04 05:21:20;;;;;;;31.83;16.70;;;;;;;;;;5050278;28;20480;-67
2023/03/04 05:23:45;;;;;;;29.57;14.67;;;;;;;;;;5050421;28;20032;-71
2023/03/04 05:26:12;;;;;;;32.30;15.80;;;;;;;;;;5051893;28;20293;-64
2023/03/04 05:28:37;;;;;;;29.30;17.80;;;;;;;;;;5052026;28;20287;-70
2023/03/04 05:31:03;;;;;;;27.83;15.00;;;;;;;;;;5050223;28;20107;-71
2023/03/04 05:33:28;;;;;;;24.75;14.55;;;;;;;;;;5049018;28;20029;-70
2023/03/04 05:35:53;;;;;;;26.52;13.88;;;;;;;;;;5049852;28;20032;-73
2023/03/04 05:38:19;;;;;;;28.45;15.38;;;;;;;;;;5049773;28;20074;-72
2023/03/04 05:40:45;;;;;;;33.08;15.70;;;;;;;;;;5049765;28;20021;-71
2023/03/04 05:43:10;;;;;;;27.90;14.68;;;;;;;;;;5048103;28;20391;-63
2023/03/04 05:45:36;;;;;;;29.77;13.97;;;;;;;;;;5045723;28;20523;-70
2023/03/04 05:48:02;;;;;;;32.30;15.93;;;;;;;;;;5049351;28;20666;-69
2023/03/04 05:50:27;;;;;;;30.25;15.75;;;;;;;;;;5048716;28;20120;-70
2023/03/04 05:52:52;;;;;;;25.88;14.95;;;;;;;;;;5049887;28;20464;-70
2023/03/04 05:55:18;;;;;;;25.37;14.43;;;;;;;;;;5049526;28;20037;-72
2023/03/04 05:57:43;;;;;;;26.23;16.27;;;;;;;;;;5049472;28;20279;-70
2023/03/04 06:00:09;;;;;;;26.77;14.02;;;;;;;;;;5057536;28;20032;-70
2023/03/04 06:02:35;;;;;;;26.58;13.57;;;;;;;;;;5034680;28;20110;-70
2023/03/04 06:05:00;;;;;;;27.50;15.43;;;;;;;;;;5047221;28;20456;-70
2023/03/04 06:07:25;;;;;;;29.40;15.32;;;;;;;;;;5041728;28;20033;-70
2023/03/04 06:09:51;;;;;;;31.77;16.67;;;;;;;;;;5048470;28;20083;-71
2023/03/04 06:12:16;;;;;;;28.60;15.70;;;;;;;;;;5048151;28;20283;-70
2023/03/04 06:14:41;;;;;;;35.00;16.77;;;;;;;;;;5048569;28;20037;-70
2023/03/04 06:17:06;;;;;;;28.55;15.70;;;;;;;;;;5046990;28;20528;-73
2023/03/04 06:19:31;;;;;;;28.37;15.97;;;;;;;;;;5046797;28;20062;-71
2023/03/04 06:21:58;;;;;;;27.20;14.25;;;;;;;;;;5048156;28;20291;-69
2023/03/04 06:24:23;;;;;;;31.23;16.05;;;;;;;;;;5048980;28;20132;-70
2023/03/04 06:26:49;;;;;;;29.00;13.80;;;;;;;;;;5049051;28;20425;-70
2023/03/04 06:29:14;;;;;;;30.80;15.48;;;;;;;;;;5048375;28;20037;-70
2023/03/04 06:31:40;;;;;;;30.60;16.63;;;;;;;;;;5057422;28;20052;-69
2023/03/04 06:34:06;;;;;;;29.40;14.60;;;;;;;;;;5048043;28;20491;-69
2023/03/04 06:36:31;;;;;;;24.27;13.10;;;;;;;;;;5047920;28;20025;-72
2023/03/04 06:38:56;;;;;;;24.63;14.53;;;;;;;;;;5048380;28;20531;-71
2023/03/04 06:41:22;;;;;;;27.03;15.37;;;;;;;;;;5048809;28;20367;-68
2023/03/04 06:43:47;;;;;;;31.07;14.43;;;;;;;;;;5048991;28;20766;-68
2023/03/04 06:46:12;;;;;;;28.05;14.77;;;;;;;;;;5048621;28;20746;-69
2023/03/04 06:48:37;;;;;;;28.27;14.13;;;;;;;;;;5047017;28;20039;-68
2023/03/04 06:51:07;;;;;;;29.13;15.47;;;;;;;;;;5045068;28;20375;-69
2023/03/04 06:53:32;;;;;;;30.85;16.60;;;;;;;;;;5045113;28;20285;-70
2023/03/04 06:55:57;;;;;;;28.77;15.23;;;;;;;;;;5047814;28;20407;-70
2023/03/04 06:58:22;;;;;;;33.88;15.55;;;;;;;;;;5048407;28;20033;-70
2023/03/04 07:00:48;;;;;;;29.17;15.63;;;;;;;;;;5046438;28;20459;-70
2023/03/04 07:03:13;;;;;;;28.98;15.43;;;;;;;;;;5049412;28;20032;-70
2023/03/04 07:05:38;;;;;;;29.05;14.48;;;;;;;;;;5042383;28;20032;-69
2023/03/04 07:08:04;;;;;;;30.40;14.60;;;;;;;;;;5041315;28;20630;-69
2023/03/04 07:10:30;;;;;;;27.95;15.73;;;;;;;;;;5044177;28;20342;-69
2023/03/04 07:12:55;;;;;;;27.63;14.37;;;;;;;;;;5045745;28;20029;-70
2023/03/04 07:15:20;;;;;;;27.67;15.03;;;;;;;;;;5048464;28;20332;-69
2023/03/04 07:17:45;;;;;;;31.43;15.43;;;;;;;;;;5048646;28;20267;-63
2023/03/04 07:20:11;;;;;;;30.33;16.27;;;;;;;;;;5045633;28;20260;-63
2023/03/04 07:22:36;;;;;;;27.42;16.38;;;;;;;;;;5047918;28;20096;-63
2023/03/04 07:25:01;;;;;;;30.70;15.27;;;;;;;;;;5046635;28;20132;-63
2023/03/04 07:27:26;;;;;;;31.13;17.73;;;;;;;;;;5048914;28;20397;-64
2023/03/04 07:29:52;;;;;;;27.60;15.00;;;;;;;;;;5048197;28;20040;-65
2023/03/04 07:32:17;;;;;;;28.90;16.20;;;;;;;;;;5048153;28;20362;-62
2023/03/04 07:34:42;;;;;;;30.30;16.83;;;;;;;;;;5052952;28;20287;-72
2023/03/04 07:37:07;;;;;;;29.10;15.33;;;;;;;;;;5051991;28;20268;-64
2023/03/04 07:39:32;;;;;;;27.90;15.60;;;;;;;;;;5047424;28;20306;-65
2023/03/04 07:41:57;;;;;;;28.87;14.50;;;;;;;;;;5052145;28;20267;-63
2023/03/04 07:44:23;;;;;;;29.37;14.53;;;;;;;;;;5050834;28;20283;-65
2023/03/04 07:46:48;;;;;;;27.55;15.25;;;;;;;;;;5052120;28;20275;-63
2023/03/04 07:49:13;;;;;;;28.97;15.03;;;;;;;;;;5051978;28;20112;-64
2023/03/04 07:51:39;;;;;;;27.05;14.68;;;;;;;;;;5052190;28;20264;-68
2023/03/04 07:54:04;;;;;;;27.48;14.00;;;;;;;;;;5051836;28;20028;-67
2023/03/04 07:56:31;;;;;;;23.92;13.15;;;;;;;;;;5051698;28;20071;-67
2023/03/04 07:58:57;;;;;;;24.33;13.70;;;;;;;;;;5050437;28;20415;-68
2023/03/04 08:01:26;;;;;;;24.65;12.68;;;;;;;;;;5051823;28;20091;-69
2023/03/04 08:03:51;;;;;;;24.35;13.27;;;;;;;;;;5046302;28;20032;-68
2023/03/04 08:06:18;;;;;;;27.95;14.75;;;;;;;;;;5054934;28;20033;-68
2023/03/04 08:08:44;;;;;;;29.80;14.82;;;;;;;;;;5038249;28;20047;-67
2023/03/04 08:11:17;;;;;;;28.58;15.27;;;;;;;;;;5040366;28;20091;-70
2023/03/04 08:13:42;;;;;;;26.63;13.82;;;;;;;;;;5051628;28;20466;-67
2023/03/04 08:16:09;;;;;;;27.92;14.82;;;;;;;;;;5050201;28;20039;-68
2023/03/04 08:18:34;;;;;;;28.23;15.90;;;;;;;;;;5049303;28;20159;-69
2023/03/04 08:20:59;;;;;;;27.48;15.05;;;;;;;;;;5043812;28;20120;-71
2023/03/04 08:23:24;;;;;;;27.95;15.57;;;;;;;;;;5048993;28;20514;-70
2023/03/04 08:25:50;;;;;;;27.13;15.00;;;;;;;;;;5050988;28;20055;-70
2023/03/04 08:28:15;;;;;;;28.10;15.70;;;;;;;;;;5048601;28;20354;-68
2023/03/04 08:30:41;;;;;;;26.73;15.07;;;;;;;;;;5051321;28;20039;-65
2023/03/04 08:33:06;;;;;;;28.00;14.88;;;;;;;;;;5049447;28;20028;-69
2023/03/04 08:35:32;;;;;;;28.58;15.80;;;;;;;;;;5051065;28;20029;-69
2023/03/04 08:37:57;;;;;;;27.58;13.77;;;;;;;;;;5053347;28;20009;-68
2023/03/04 08:40:25;;;;;;;29.17;15.02;;;;;;;;;;5057376;28;20021;-71
2023/03/04 08:42:50;;;;;;;26.23;14.77;;;;;;;;;;5050576;28;20039;-69
2023/03/04 08:45:15;;;;;;;28.17;14.77;;;;;;;;;;5050789;28;20021;-68
2023/03/04 08:47:40;;;;;;;29.02;14.68;;;;;;;;;;5050767;28;20546;-71
2023/03/04 08:50:06;;;;;;;31.35;15.65;;;;;;;;;;5047917;28;20105;-69
2023/03/04 08:52:31;;;;;;;25.83;15.70;;;;;;;;;;5031907;28;20021;-70
2023/03/04 08:54:57;;;;;;;25.70;14.73;;;;;;;;;;5050264;28;20028;-70
2023/03/04 08:57:22;;;;;;;33.92;18.27;;;;;;;;;;5051035;28;20511;-71
2023/03/04 08:59:47;;;;;;;30.75;15.15;;;;;;;;;;5050278;28;20127;-69
2023/03/04 09:02:13;;;;;;;31.43;16.37;;;;;;;;;;5048674;28;20593;-70
2023/03/04 09:04:38;;;;;;;28.30;15.20;;;;;;;;;;5047690;28;20279;-65
2023/03/04 09:07:04;;;;;;;26.17;14.80;;;;;;;;;;5042999;28;20277;-70
2023/03/04 09:09:30;;;;;;;32.60;15.82;;;;;;;;;;5046995;28;20025;-65
2023/03/04 09:11:55;;;;;;;26.27;14.82;;;;;;;;;;5058789;28;20029;-63
2023/03/04 09:14:20;;;;;;;29.57;15.27;;;;;;;;;;5050750;28;20357;-65
2023/03/04 09:16:45;;;;;;;26.97;14.77;;;;;;;;;;5050007;28;20267;-64
2023/03/04 09:19:10;;;;;;;26.25;14.65;;;;;;;;;;5049789;28;20282;-63
2023/03/04 09:21:36;;;;;;;25.02;14.95;;;;;;;;;;5039312;28;20490;-67
2023/03/04 09:24:01;;;;;;;27.45;15.57;;;;;;;;;;5038830;28;20118;-69
2023/03/04 09:26:27;;;;;;;28.07;15.20;;;;;;;;;;5050220;28;20175;-62
2023/03/04 09:28:54;;;;;;;28.10;15.13;;;;;;;;;;5050085;28;20279;-64
2023/03/04 09:31:19;;;;;;;25.23;14.43;;;;;;;;;;5050123;28;20025;-64
2023/03/04 09:33:45;;;;;;;26.02;14.27;;;;;;;;;;5049979;28;20037;-62
2023/03/04 09:36:11;;;;;;;23.48;13.35;;;;;;;;;;5046296;28;20076;-62
2023/03/04 09:38:39;;;;;;;26.27;15.07;;;;;;;;;;5041023;28;20519;-63
2023/03/04 09:41:06;;;;;;;29.02;15.05;;;;;;;;;;5031113;28;20029;-65
2023/03/04 09:43:32;;;;;;;26.67;14.15;;;;;;;;;;5055222;28;20056;-69
2023/03/04 09:45:59;;;;;;;25.73;14.35;;;;;;;;;;5049136;28;20454;-70
2023/03/04 09:48:25;;;;;;;27.05;14.23;;;;;;;;;;5031831;28;20029;-69
2023/03/04 09:50:58;;;;;;;26.13;14.65;;;;;;;;;;5043586;28;20068;-70
2023/03/04 09:53:41;;;;;;;27.35;13.18;;;;;;;;;;5047691;28;20035;-70
2023/03/04 09:56:09;;;;;;;26.55;14.30;;;;;;;;;;5049594;28;20021;-71
2023/03/04 09:58:42;;;;;;;23.80;13.52;;;;;;;;;;5049562;28;20036;-71
2023/03/04 10:01:18;;;;;;;24.70;13.68;;;;;;;;;;5048106;28;20027;-69
2023/03/04 10:03:47;;;;;;;24.60;13.23;;;;;;;;;;5043495;28;20016;-72
2023/03/04 10:06:15;;;;;;;25.85;14.30;;;;;;;;;;5049504;28;20083;-71
2023/03/04 10:09:01;;;;;;;26.90;14.83;;;;;;;;;;5048694;28;20021;-71
2023/03/04 10:11:29;;;;;;;30.42;17.02;;;;;;;;;;5049290;28;20021;-72
2023/03/04 10:14:10;;;;;;;25.38;15.65;;;;;;;;;;5051406;28;20043;-71
2023/03/04 10:16:41;;;;;;;27.20;14.25;;;;;;;;;;5052874;28;20029;-69
2023/03/04 10:19:06;;;;;;;28.60;16.00;;;;;;;;;;5048926;28;20196;-70
2023/03/04 10:21:37;;;;;;;27.67;15.57;;;;;;;;;;5048903;28;20439;-70
2023/03/04 10:24:13;;;;;;;34.03;17.48;;;;;;;;;;5048492;28;20063;-72
2023/03/04 10:26:41;;;;;;;29.00;17.65;;;;;;;;;;5048613;28;20032;-69
2023/03/04 10:29:08;;;;;;;28.13;18.02;;;;;;;;;;5049023;28;20025;-70
2023/03/04 10:31:35;;;;;;;28.25;17.45;;;;;;;;;;5042859;28;20018;-69
2023/03/04 10:34:02;;;;;;;32.88;18.60;;;;;;;;;;5049073;28;20111;-70
2023/03/04 10:36:27;;;;;;;25.88;15.82;;;;;;;;;;5048941;28;20498;-71
2023/03/04 10:38:54;;;;;;;29.90;17.63;;;;;;;;;;5048047;28;20115;-63
2023/03/04 10:41:21;;;;;;;29.77;17.20;;;;;;;;;;5046956;28;20120;-70
2023/03/04 10:44:05;;;;;;;28.88;17.13;;;;;;;;;;5037902;28;20436;-71
2023/03/04 10:46:31;;;;;;;28.45;16.88;;;;;;;;;;5052129;28;20021;-72
2023/03/04 10:48:57;;;;;;;32.80;18.00;;;;;;;;;;5051922;28;20392;-71
2023/03/04 10:51:23;;;;;;;29.25;18.60;;;;;;;;;;5048391;28;20803;-72
2023/03/04 10:53:50;;;;;;;35.40;19.55;;;;;;;;;;5046764;28;20111;-71
2023/03/04 10:56:30;;;;;;;31.33;17.83;;;;;;;;;;5048145;28;20171;-64
2023/03/04 10:59:15;;;;;;;30.50;17.90;;;;;;;;;;5039079;28;20025;-70
2023/03/04 11:01:40;;;;;;;35.83;20.25;;;;;;;;;;5036947;28;20059;-70
2023/03/04 11:04:14;;;;;;;32.67;19.70;;;;;;;;;;5044353;28;20033;-71
2023/03/04 11:06:40;;;;;;;35.80;18.25;;;;;;;;;;5048313;28;20287;-69
2023/03/04 11:09:06;;;;;;;36.15;21.58;;;;;;;;;;5048745;28;20041;-71
2023/03/04 11:11:43;;;;;;;36.45;21.70;;;;;;;;;;5048270;28;20033;-71
2023/03/04 11:14:29;;;;;;;39.67;23.45;;;;;;;;;;5046559;28;20053;-73
2023/03/04 11:17:20;;;;;;;41.25;22.98;;;;;;;;;;5051770;28;20044;-69
2023/03/04 11:19:47;;;;;;;41.42;23.25;;;;;;;;;;5056106;28;20033;-70
2023/03/04 11:22:17;;;;;;;39.38;22.52;;;;;;;;;;5043831;28;20690;-71
2023/03/04 11:24:42;;;;;;;36.35;20.90;;;;;;;;;;5052541;28;20368;-69
2023/03/04 11:27:10;;;;;;;33.85;19.70;;;;;;;;;;5052259;28;20021;-69
2023/03/04 11:29:40;;;;;;;38.10;21.35;;;;;;;;;;5052127;28;20028;-71
2023/03/04 11:32:09;;;;;;;38.08;22.65;;;;;;;;;;5045016;28;20353;-69
2023/03/04 11:34:41;;;;;;;37.67;21.97;;;;;;;;;;5051446;28;20033;-69
2023/03/04 11:37:11;;;;;;;37.80;23.80;;;;;;;;;;5052171;28;20028;-65
2023/03/04 11:39:38;;;;;;;35.92;20.77;;;;;;;;;;5052381;28;20028;-65
2023/03/04 11:42:12;;;;;;;38.65;22.50;;;;;;;;;;5052082;28;20143;-67
2023/03/04 11:44:37;;;;;;;40.38;23.65;;;;;;;;;;5051985;28;20104;-65
2023/03/04 11:47:05;;;;;;;38.75;23.35;;;;;;;;;;5050720;28;20493;-66
2023/03/04 11:49:49;;;;;;;43.80;23.83;;;;;;;;;;5053190;28;20029;-67
2023/03/04 11:52:19;;;;;;;39.55;23.48;;;;;;;;;;5054551;28;20520;-71
2023/03/04 11:55:03;;;;;;;41.28;24.55;;;;;;;;;;5050285;28;20036;-72
2023/03/04 11:57:40;;;;;;;38.65;23.73;;;;;;;;;;5051965;28;20120;-71
2023/03/04 12:00:14;;;;;;;41.10;22.63;;;;;;;;;;5045460;28;20021;-71
2023/03/04 12:02:47;;;;;;;40.72;23.92;;;;;;;;;;5045388;28;20059;-72
2023/03/04 12:05:22;;;;;;;39.05;21.95;;;;;;;;;;5051868;28;20025;-71
2023/03/04 12:08:02;;;;;;;35.30;21.38;;;;;;;;;;5051534;28;20120;-71
2023/03/04 12:10:32;;;;;;;39.85;21.65;;;;;;;;;;5051723;28;20104;-70
2023/03/04 12:13:17;;;;;;;39.42;22.70;;;;;;;;;;5048982;28;20104;-70
2023/03/04 12:15:48;;;;;;;35.28;21.92;;;;;;;;;;5032967;28;20037;-68
2023/03/04 12:18:20;;;;;;;38.20;22.80;;;;;;;;;;5049913;28;20028;-69
2023/03/04 12:21:04;;;;;;;36.88;23.27;;;;;;;;;;5047923;28;20062;-70
2023/03/04 12:23:48;;;;;;;39.10;23.40;;;;;;;;;;5059514;28;20029;-69
2023/03/04 12:26:32;;;;;;;35.85;22.45;;;;;;;;;;5050084;28;20228;-69
2023/03/04 12:28:59;;;;;;;44.17;24.70;;;;;;;;;;5041316;28;20664;-69
2023/03/04 12:31:36;;;;;;;35.47;20.45;;;;;;;;;;5052214;28;20021;-67
2023/03/04 12:34:01;;;;;;;37.20;21.50;;;;;;;;;;5039539;28;20538;-67
2023/03/04 12:36:26;;;;;;;35.67;22.40;;;;;;;;;;5032105;28;20025;-66
2023/03/04 12:38:54;;;;;;;39.77;23.20;;;;;;;;;;5050753;28;20280;-67
2023/03/04 12:41:33;;;;;;;35.80;21.40;;;;;;;;;;5051059;28;20029;-68
2023/03/04 12:44:10;;;;;;;34.50;20.35;;;;;;;;;;5051470;28;20470;-68
2023/03/04 12:46:56;;;;;;;36.78;21.17;;;;;;;;;;5049448;28;20059;-69
2023/03/04 12:49:40;;;;;;;39.03;25.75;;;;;;;;;;5046043;28;20025;-63
2023/03/04 12:52:18;;;;;;;40.38;22.70;;;;;;;;;;5050806;28;20111;-62
2023/03/04 12:54:51;;;;;;;43.60;24.67;;;;;;;;;;5055282;28;20323;-63
2023/03/04 12:57:19;;;;;;;36.90;23.55;;;;;;;;;;5051690;28;20027;-63
2023/03/04 12:59:50;;;;;;;36.90;21.20;;;;;;;;;;5049458;28;20032;-66
2023/03/04 13:02:18;;;;;;;39.42;22.15;;;;;;;;;;5050739;28;20479;-65
2023/03/04 13:04:43;;;;;;;39.58;23.65;;;;;;;;;;5050261;28;20533;-71
2023/03/04 13:07:26;;;;;;;35.90;22.00;;;;;;;;;;5043531;28;20025;-68
2023/03/04 13:09:56;;;;;;;38.75;21.83;;;;;;;;;;5045710;28;20049;-67
2023/03/04 13:12:22;;;;;;;36.30;22.02;;;;;;;;;;5050174;28;20622;-68
2023/03/04 13:15:05;;;;;;;43.47;25.27;;;;;;;;;;5050246;28;20045;-67
2023/03/04 13:17:45;;;;;;;44.10;25.08;;;;;;;;;;5050583;28;20533;-68
2023/03/04 13:20:17;;;;;;;38.42;22.48;;;;;;;;;;5048816;28;20029;-68
2023/03/04 13:22:47;;;;;;;37.17;22.58;;;;;;;;;;5050080;28;20128;-64
2023/03/04 13:25:32;;;;;;;39.92;23.75;;;;;;;;;;5052386;28;20460;-62
2023/03/04 13:28:14;;;;;;;42.30;23.23;;;;;;;;;;5051802;28;20044;-68
2023/03/04 13:31:02;;;;;;;41.35;23.23;;;;;;;;;;5047487;28;20048;-69
2023/03/04 13:33:33;;;;;;;39.08;23.75;;;;;;;;;;5045679;28;20024;-69
2023/03/04 13:36:00;;;;;;;42.15;25.08;;;;;;;;;;5049999;28;20120;-69
2023/03/04 13:38:26;;;;;;;43.50;25.35;;;;;;;;;;5049629;28;20025;-68
2023/03/04 13:41:10;;;;;;;44.03;23.48;;;;;;;;;;5049028;28;20664;-68
2023/03/04 13:43:38;;;;;;;39.70;22.58;;;;;;;;;;5048775;28;20052;-71
2023/03/04 13:46:18;;;;;;;44.70;24.88;;;;;;;;;;5049744;28;20017;-70
2023/03/04 13:48:49;;;;;;;45.75;23.27;;;;;;;;;;5047292;28;20025;-71
2023/03/04 13:51:26;;;;;;;34.38;21.15;;;;;;;;;;5046881;28;20026;-71
2023/03/04 13:53:57;;;;;;;38.85;21.88;;;;;;;;;;5049098;28;20029;-70
2023/03/04 13:56:28;;;;;;;35.97;21.83;;;;;;;;;;5049478;28;20035;-72
2023/03/04 13:59:08;;;;;;;36.70;19.27;;;;;;;;;;5056216;28;20055;-70
2023/03/04 14:01:33;;;;;;;35.05;19.83;;;;;;;;;;5045977;28;20417;-63
2023/03/04 14:03:59;;;;;;;31.77;17.57;;;;;;;;;;5045598;28;20110;-64
2023/03/04 14:06:28;;;;;;;28.80;16.85;;;;;;;;;;5049274;28;21024;-63
2023/03/04 14:08:54;;;;;;;29.85;16.35;;;;;;;;;;5049530;28;20040;-63
2023/03/04 14:11:34;;;;;;;28.83;15.95;;;;;;;;;;5048727;28;20029;-64
2023/03/04 14:14:02;;;;;;;31.23;15.68;;;;;;;;;;5049544;28;20029;-64
2023/03/04 14:16:30;;;;;;;28.38;14.43;;;;;;;;;;5048937;28;20029;-63
2023/03/04 14:19:00;;;;;;;27.90;15.38;;;;;;;;;;5049010;28;20037;-73